sensor_id;sensor_type;location;lat;lon;timestamp;P1;durP1;ratioP1;P2;durP2;ratioP2
75542;SDS011;64129;53.508;10.476;2023-07-13T00:02:18;7.95;;;2.70;;
75542;SDS011;64129;53.508;10.476;2023-07-13T00:04:45;5.90;;;2.00;;
75542;SDS011;64129;53.508;10.476;2023-07-13T00:07:12;4.43;;;2.00;;
75542;SDS011;64129;53.508;10.476;2023-07-13T00:09:40;3.40;;;2.13;;
75542;SDS011;64129;53.508;10.476;2023-07-13T00:12:21;2.47;;;1.75;;
75542;SDS011;64129;53.508;10.476;2023-07-13T00:17:21;5.47;;;2.17;;
75542;SDS011;64129;53.508;10.476;2023-07-13T00:19:47;5.88;;;2.17;;
75542;SDS011;64129;53.508;10.476;2023-07-13T00:22:14;3.58;;;2.08;;
75542;SDS011;64129;53.508;10.476;2023-07-13T00:24:41;5.15;;;2.30;;
75542;SDS011;64129;53.508;10.476;2023-07-13T00:27:08;5.25;;;2.53;;
75542;SDS011;64129;53.508;10.476;2023-07-13T00:29:36;6.93;;;2.58;;
75542;SDS011;64129;53.508;10.476;2023-07-13T00:32:03;3.78;;;2.00;;
75542;SDS011;64129;53.508;10.476;2023-07-13T00:34:31;3.58;;;1.98;;
75542;SDS011;64129;53.508;10.476;2023-07-13T00:36:59;4.60;;;2.08;;
75542;SDS011;64129;53.508;10.476;2023-07-13T00:39:25;4.05;;;2.15;;
75542;SDS011;64129;53.508;10.476;2023-07-13T00:41:52;6.80;;;1.80;;
75542;SDS011;64129;53.508;10.476;2023-07-13T00:44:19;3.92;;;2.20;;
75542;SDS011;64129;53.508;10.476;2023-07-13T00:46:49;5.75;;;2.42;;
75542;SDS011;64129;53.508;10.476;2023-07-13T00:49:18;2.45;;;2.00;;
75542;SDS011;64129;53.508;10.476;2023-07-13T00:51:49;4.50;;;1.80;;
75542;SDS011;64129;53.508;10.476;2023-07-13T00:54:24;4.10;;;2.00;;
75542;SDS011;64129;53.508;10.476;2023-07-13T00:56:55;7.22;;;2.25;;
75542;SDS011;64129;53.508;10.476;2023-07-13T00:59:25;4.68;;;2.08;;
75542;SDS011;64129;53.508;10.476;2023-07-13T01:01:52;3.05;;;2.25;;
75542;SDS011;64129;53.508;10.476;2023-07-13T01:04:20;4.85;;;2.13;;
75542;SDS011;64129;53.508;10.476;2023-07-13T01:06:46;9.13;;;2.40;;
75542;SDS011;64129;53.508;10.476;2023-07-13T01:09:13;5.13;;;2.42;;
75542;SDS011;64129;53.508;10.476;2023-07-13T01:11:40;3.75;;;2.20;;
75542;SDS011;64129;53.508;10.476;2023-07-13T01:14:08;6.75;;;2.53;;
75542;SDS011;64129;53.508;10.476;2023-07-13T01:16:36;4.68;;;2.22;;
75542;SDS011;64129;53.508;10.476;2023-07-13T01:22:06;3.17;;;1.90;;
75542;SDS011;64129;53.508;10.476;2023-07-13T01:24:38;4.38;;;2.22;;
75542;SDS011;64129;53.508;10.476;2023-07-13T01:27:07;3.25;;;1.95;;
75542;SDS011;64129;53.508;10.476;2023-07-13T01:29:37;3.78;;;1.90;;
75542;SDS011;64129;53.508;10.476;2023-07-13T01:32:09;5.97;;;2.28;;
75542;SDS011;64129;53.508;10.476;2023-07-13T01:34:37;3.53;;;2.00;;
75542;SDS011;64129;53.508;10.476;2023-07-13T01:37:04;1.98;;;1.83;;
75542;SDS011;64129;53.508;10.476;2023-07-13T01:39:31;1.85;;;1.70;;
75542;SDS011;64129;53.508;10.476;2023-07-13T01:41:58;4.03;;;1.90;;
75542;SDS011;64129;53.508;10.476;2023-07-13T01:44:25;4.38;;;2.10;;
75542;SDS011;64129;53.508;10.476;2023-07-13T01:46:52;2.22;;;2.00;;
75542;SDS011;64129;53.508;10.476;2023-07-13T01:49:18;4.90;;;1.95;;
75542;SDS011;64129;53.508;10.476;2023-07-13T01:51:45;4.63;;;2.00;;
75542;SDS011;64129;53.508;10.476;2023-07-13T01:54:12;3.33;;;1.80;;
75542;SDS011;64129;53.508;10.476;2023-07-13T01:56:38;3.95;;;1.83;;
75542;SDS011;64129;53.508;10.476;2023-07-13T01:59:06;4.15;;;1.67;;
75542;SDS011;64129;53.508;10.476;2023-07-13T02:01:32;7.57;;;1.90;;
75542;SDS011;64129;53.508;10.476;2023-07-13T02:03:58;4.70;;;2.13;;
75542;SDS011;64129;53.508;10.476;2023-07-13T02:06:27;2.58;;;2.17;;
75542;SDS011;64129;53.508;10.476;2023-07-13T02:08:54;5.30;;;2.13;;
75542;SDS011;64129;53.508;10.476;2023-07-13T02:11:21;5.07;;;2.53;;
75542;SDS011;64129;53.508;10.476;2023-07-13T02:13:47;4.50;;;3.03;;
75542;SDS011;64129;53.508;10.476;2023-07-13T02:16:14;3.67;;;2.70;;
75542;SDS011;64129;53.508;10.476;2023-07-13T02:18:41;3.80;;;2.60;;
75542;SDS011;64129;53.508;10.476;2023-07-13T02:21:08;3.63;;;2.88;;
75542;SDS011;64129;53.508;10.476;2023-07-13T02:23:34;7.57;;;3.40;;
75542;SDS011;64129;53.508;10.476;2023-07-13T02:26:03;4.70;;;2.85;;
75542;SDS011;64129;53.508;10.476;2023-07-13T02:28:29;3.70;;;2.75;;
75542;SDS011;64129;53.508;10.476;2023-07-13T02:31:03;6.18;;;3.33;;
75542;SDS011;64129;53.508;10.476;2023-07-13T02:33:37;6.38;;;3.92;;
75542;SDS011;64129;53.508;10.476;2023-07-13T02:36:04;6.72;;;3.58;;
75542;SDS011;64129;53.508;10.476;2023-07-13T02:38:32;6.53;;;3.60;;
75542;SDS011;64129;53.508;10.476;2023-07-13T02:41:01;5.88;;;3.72;;
75542;SDS011;64129;53.508;10.476;2023-07-13T02:43:28;7.68;;;3.53;;
75542;SDS011;64129;53.508;10.476;2023-07-13T02:45:56;9.13;;;4.72;;
75542;SDS011;64129;53.508;10.476;2023-07-13T02:48:22;5.95;;;4.10;;
75542;SDS011;64129;53.508;10.476;2023-07-13T02:50:49;7.88;;;4.38;;
75542;SDS011;64129;53.508;10.476;2023-07-13T02:53:16;7.35;;;4.35;;
75542;SDS011;64129;53.508;10.476;2023-07-13T02:55:43;5.97;;;4.40;;
75542;SDS011;64129;53.508;10.476;2023-07-13T02:58:13;9.70;;;4.75;;
75542;SDS011;64129;53.508;10.476;2023-07-13T03:00:43;8.25;;;4.40;;
75542;SDS011;64129;53.508;10.476;2023-07-13T03:03:13;7.95;;;5.43;;
75542;SDS011;64129;53.508;10.476;2023-07-13T03:05:42;4.13;;;3.70;;
75542;SDS011;64129;53.508;10.476;2023-07-13T03:08:12;10.30;;;4.45;;
75542;SDS011;64129;53.508;10.476;2023-07-13T03:10:40;6.45;;;4.47;;
75542;SDS011;64129;53.508;10.476;2023-07-13T03:13:09;9.35;;;4.88;;
75542;SDS011;64129;53.508;10.476;2023-07-13T03:15:35;7.53;;;4.60;;
75542;SDS011;64129;53.508;10.476;2023-07-13T03:18:02;8.43;;;4.97;;
75542;SDS011;64129;53.508;10.476;2023-07-13T03:20:31;8.02;;;4.50;;
75542;SDS011;64129;53.508;10.476;2023-07-13T03:23:00;6.40;;;4.57;;
75542;SDS011;64129;53.508;10.476;2023-07-13T03:25:27;8.63;;;4.85;;
75542;SDS011;64129;53.508;10.476;2023-07-13T03:27:53;7.45;;;4.57;;
75542;SDS011;64129;53.508;10.476;2023-07-13T03:30:20;6.03;;;3.90;;
75542;SDS011;64129;53.508;10.476;2023-07-13T03:32:47;8.82;;;5.15;;
75542;SDS011;64129;53.508;10.476;2023-07-13T03:35:14;7.72;;;4.82;;
75542;SDS011;64129;53.508;10.476;2023-07-13T03:37:40;9.30;;;4.28;;
75542;SDS011;64129;53.508;10.476;2023-07-13T03:40:11;7.07;;;4.20;;
75542;SDS011;64129;53.508;10.476;2023-07-13T03:42:38;6.20;;;4.47;;
75542;SDS011;64129;53.508;10.476;2023-07-13T03:45:06;5.75;;;4.22;;
75542;SDS011;64129;53.508;10.476;2023-07-13T03:47:33;6.70;;;4.80;;
75542;SDS011;64129;53.508;10.476;2023-07-13T03:50:03;6.40;;;4.45;;
75542;SDS011;64129;53.508;10.476;2023-07-13T03:52:30;8.18;;;4.68;;
75542;SDS011;64129;53.508;10.476;2023-07-13T03:54:56;6.70;;;4.30;;
75542;SDS011;64129;53.508;10.476;2023-07-13T03:57:23;7.40;;;4.50;;
75542;SDS011;64129;53.508;10.476;2023-07-13T03:59:50;8.77;;;4.60;;
75542;SDS011;64129;53.508;10.476;2023-07-13T04:02:16;8.07;;;4.45;;
75542;SDS011;64129;53.508;10.476;2023-07-13T04:04:43;5.63;;;4.85;;
75542;SDS011;64129;53.508;10.476;2023-07-13T04:07:10;5.68;;;4.25;;
75542;SDS011;64129;53.508;10.476;2023-07-13T04:09:38;5.85;;;4.95;;
75542;SDS011;64129;53.508;10.476;2023-07-13T04:12:05;7.13;;;4.78;;
75542;SDS011;64129;53.508;10.476;2023-07-13T04:14:32;8.68;;;4.80;;
75542;SDS011;64129;53.508;10.476;2023-07-13T04:16:59;9.68;;;4.55;;
75542;SDS011;64129;53.508;10.476;2023-07-13T04:19:25;7.72;;;4.72;;
75542;SDS011;64129;53.508;10.476;2023-07-13T04:21:52;9.25;;;4.50;;
75542;SDS011;64129;53.508;10.476;2023-07-13T04:24:18;7.97;;;4.95;;
75542;SDS011;64129;53.508;10.476;2023-07-13T04:26:45;6.93;;;4.43;;
75542;SDS011;64129;53.508;10.476;2023-07-13T04:29:11;6.53;;;4.22;;
75542;SDS011;64129;53.508;10.476;2023-07-13T04:31:38;6.75;;;4.65;;
75542;SDS011;64129;53.508;10.476;2023-07-13T04:34:04;8.77;;;4.75;;
75542;SDS011;64129;53.508;10.476;2023-07-13T04:36:31;7.68;;;4.40;;
75542;SDS011;64129;53.508;10.476;2023-07-13T04:38:57;8.30;;;4.40;;
75542;SDS011;64129;53.508;10.476;2023-07-13T04:41:24;7.43;;;4.68;;
75542;SDS011;64129;53.508;10.476;2023-07-13T04:43:51;7.85;;;4.85;;
75542;SDS011;64129;53.508;10.476;2023-07-13T04:46:18;7.93;;;4.00;;
75542;SDS011;64129;53.508;10.476;2023-07-13T04:48:45;5.60;;;3.90;;
75542;SDS011;64129;53.508;10.476;2023-07-13T04:51:12;5.95;;;4.43;;
75542;SDS011;64129;53.508;10.476;2023-07-13T04:53:39;6.85;;;4.20;;
75542;SDS011;64129;53.508;10.476;2023-07-13T04:56:05;5.75;;;3.75;;
75542;SDS011;64129;53.508;10.476;2023-07-13T04:58:32;7.65;;;4.03;;
75542;SDS011;64129;53.508;10.476;2023-07-13T05:01:01;7.75;;;4.07;;
75542;SDS011;64129;53.508;10.476;2023-07-13T05:03:31;5.80;;;4.68;;
75542;SDS011;64129;53.508;10.476;2023-07-13T05:06:08;7.13;;;4.47;;
75542;SDS011;64129;53.508;10.476;2023-07-13T05:08:37;6.38;;;3.92;;
75542;SDS011;64129;53.508;10.476;2023-07-13T05:11:04;9.68;;;4.68;;
75542;SDS011;64129;53.508;10.476;2023-07-13T05:13:33;7.90;;;4.43;;
75542;SDS011;64129;53.508;10.476;2023-07-13T05:16:00;7.05;;;4.68;;
75542;SDS011;64129;53.508;10.476;2023-07-13T05:18:29;7.53;;;4.43;;
75542;SDS011;64129;53.508;10.476;2023-07-13T05:20:57;6.30;;;4.20;;
75542;SDS011;64129;53.508;10.476;2023-07-13T05:23:29;7.53;;;4.43;;
75542;SDS011;64129;53.508;10.476;2023-07-13T05:25:56;7.53;;;4.25;;
75542;SDS011;64129;53.508;10.476;2023-07-13T05:28:22;8.32;;;3.92;;
75542;SDS011;64129;53.508;10.476;2023-07-13T05:30:49;6.03;;;3.83;;
75542;SDS011;64129;53.508;10.476;2023-07-13T05:33:17;7.05;;;3.95;;
75542;SDS011;64129;53.508;10.476;2023-07-13T05:35:44;6.35;;;3.33;;
75542;SDS011;64129;53.508;10.476;2023-07-13T05:38:10;6.72;;;3.78;;
75542;SDS011;64129;53.508;10.476;2023-07-13T05:40:37;4.93;;;3.53;;
75542;SDS011;64129;53.508;10.476;2023-07-13T05:43:03;7.32;;;3.53;;
75542;SDS011;64129;53.508;10.476;2023-07-13T05:45:30;5.70;;;3.67;;
75542;SDS011;64129;53.508;10.476;2023-07-13T05:47:57;6.40;;;3.13;;
75542;SDS011;64129;53.508;10.476;2023-07-13T05:50:23;8.05;;;3.63;;
75542;SDS011;64129;53.508;10.476;2023-07-13T05:52:50;6.53;;;3.70;;
75542;SDS011;64129;53.508;10.476;2023-07-13T05:55:17;7.38;;;3.63;;
75542;SDS011;64129;53.508;10.476;2023-07-13T05:57:43;7.93;;;3.10;;
75542;SDS011;64129;53.508;10.476;2023-07-13T06:00:10;5.85;;;3.22;;
75542;SDS011;64129;53.508;10.476;2023-07-13T06:02:37;8.93;;;3.30;;
75542;SDS011;64129;53.508;10.476;2023-07-13T06:05:04;7.22;;;3.00;;
75542;SDS011;64129;53.508;10.476;2023-07-13T06:07:31;4.82;;;2.67;;
75542;SDS011;64129;53.508;10.476;2023-07-13T06:09:57;6.80;;;3.00;;
75542;SDS011;64129;53.508;10.476;2023-07-13T06:14:52;7.03;;;2.63;;
75542;SDS011;64129;53.508;10.476;2023-07-13T06:17:19;8.43;;;2.83;;
75542;SDS011;64129;53.508;10.476;2023-07-13T06:19:45;7.88;;;3.42;;
75542;SDS011;64129;53.508;10.476;2023-07-13T06:22:12;5.20;;;2.60;;
75542;SDS011;64129;53.508;10.476;2023-07-13T06:24:38;8.68;;;2.80;;
75542;SDS011;64129;53.508;10.476;2023-07-13T06:27:05;8.75;;;2.75;;
75542;SDS011;64129;53.508;10.476;2023-07-13T06:29:31;7.20;;;2.97;;
75542;SDS011;64129;53.508;10.476;2023-07-13T06:31:58;4.65;;;2.83;;
75542;SDS011;64129;53.508;10.476;2023-07-13T06:34:24;5.85;;;2.85;;
75542;SDS011;64129;53.508;10.476;2023-07-13T06:36:51;7.72;;;3.90;;
75542;SDS011;64129;53.508;10.476;2023-07-13T06:39:17;5.68;;;2.80;;
75542;SDS011;64129;53.508;10.476;2023-07-13T06:41:44;7.13;;;3.00;;
75542;SDS011;64129;53.508;10.476;2023-07-13T06:44:12;10.57;;;2.90;;
75542;SDS011;64129;53.508;10.476;2023-07-13T06:46:39;5.85;;;2.65;;
75542;SDS011;64129;53.508;10.476;2023-07-13T06:49:05;7.75;;;2.95;;
75542;SDS011;64129;53.508;10.476;2023-07-13T06:51:34;7.25;;;2.75;;
75542;SDS011;64129;53.508;10.476;2023-07-13T06:54:01;8.02;;;2.90;;
75542;SDS011;64129;53.508;10.476;2023-07-13T06:56:27;11.30;;;3.10;;
75542;SDS011;64129;53.508;10.476;2023-07-13T06:58:54;9.65;;;2.72;;
75542;SDS011;64129;53.508;10.476;2023-07-13T07:01:20;9.70;;;2.58;;
75542;SDS011;64129;53.508;10.476;2023-07-13T07:03:47;5.50;;;2.30;;
75542;SDS011;64129;53.508;10.476;2023-07-13T07:06:15;8.35;;;2.20;;
75542;SDS011;64129;53.508;10.476;2023-07-13T07:08:43;8.23;;;2.60;;
75542;SDS011;64129;53.508;10.476;2023-07-13T07:11:12;9.93;;;2.58;;
75542;SDS011;64129;53.508;10.476;2023-07-13T07:13:40;7.30;;;2.13;;
75542;SDS011;64129;53.508;10.476;2023-07-13T07:16:06;11.90;;;2.53;;
75542;SDS011;64129;53.508;10.476;2023-07-13T07:18:34;11.15;;;3.03;;
75542;SDS011;64129;53.508;10.476;2023-07-13T07:21:01;6.40;;;2.10;;
75542;SDS011;64129;53.508;10.476;2023-07-13T07:23:28;9.70;;;2.45;;
75542;SDS011;64129;53.508;10.476;2023-07-13T07:25:55;4.97;;;2.20;;
75542;SDS011;64129;53.508;10.476;2023-07-13T07:28:21;12.50;;;2.38;;
75542;SDS011;64129;53.508;10.476;2023-07-13T07:30:52;5.20;;;1.35;;
75542;SDS011;64129;53.508;10.476;2023-07-13T07:33:39;4.68;;;2.00;;
75542;SDS011;64129;53.508;10.476;2023-07-13T07:36:06;6.30;;;1.85;;
75542;SDS011;64129;53.508;10.476;2023-07-13T07:38:35;6.25;;;2.05;;
75542;SDS011;64129;53.508;10.476;2023-07-13T07:41:05;6.28;;;2.33;;
75542;SDS011;64129;53.508;10.476;2023-07-13T07:43:35;6.63;;;1.90;;
75542;SDS011;64129;53.508;10.476;2023-07-13T07:46:02;6.80;;;2.17;;
75542;SDS011;64129;53.508;10.476;2023-07-13T07:48:30;6.05;;;2.20;;
75542;SDS011;64129;53.508;10.476;2023-07-13T07:50:57;6.07;;;2.13;;
75542;SDS011;64129;53.508;10.476;2023-07-13T07:53:24;5.32;;;1.80;;
75542;SDS011;64129;53.508;10.476;2023-07-13T07:55:50;9.73;;;1.85;;
75542;SDS011;64129;53.508;10.476;2023-07-13T07:58:20;6.38;;;2.10;;
75542;SDS011;64129;53.508;10.476;2023-07-13T08:00:50;6.88;;;1.67;;
75542;SDS011;64129;53.508;10.476;2023-07-13T08:03:19;3.50;;;1.45;;
75542;SDS011;64129;53.508;10.476;2023-07-13T08:05:48;3.67;;;1.33;;
75542;SDS011;64129;53.508;10.476;2023-07-13T08:08:21;8.40;;;1.88;;
75542;SDS011;64129;53.508;10.476;2023-07-13T08:10:47;7.15;;;1.67;;
75542;SDS011;64129;53.508;10.476;2023-07-13T08:13:14;7.65;;;1.88;;
75542;SDS011;64129;53.508;10.476;2023-07-13T08:15:40;5.03;;;2.10;;
75542;SDS011;64129;53.508;10.476;2023-07-13T08:18:07;5.80;;;1.63;;
75542;SDS011;64129;53.508;10.476;2023-07-13T08:20:39;7.07;;;1.95;;
75542;SDS011;64129;53.508;10.476;2023-07-13T08:23:06;8.05;;;1.73;;
75542;SDS011;64129;53.508;10.476;2023-07-13T08:25:35;4.80;;;1.63;;
75542;SDS011;64129;53.508;10.476;2023-07-13T08:28:02;4.65;;;1.33;;
75542;SDS011;64129;53.508;10.476;2023-07-13T08:30:29;4.85;;;1.80;;
75542;SDS011;64129;53.508;10.476;2023-07-13T08:32:56;6.25;;;1.77;;
75542;SDS011;64129;53.508;10.476;2023-07-13T08:35:23;7.00;;;2.00;;
75542;SDS011;64129;53.508;10.476;2023-07-13T08:37:51;7.60;;;2.10;;
75542;SDS011;64129;53.508;10.476;2023-07-13T08:40:18;4.13;;;1.75;;
75542;SDS011;64129;53.508;10.476;2023-07-13T08:42:53;5.40;;;1.50;;
75542;SDS011;64129;53.508;10.476;2023-07-13T08:45:33;4.22;;;1.70;;
75542;SDS011;64129;53.508;10.476;2023-07-13T08:48:09;5.25;;;1.90;;
75542;SDS011;64129;53.508;10.476;2023-07-13T08:50:43;5.25;;;1.67;;
75542;SDS011;64129;53.508;10.476;2023-07-13T08:53:25;6.90;;;1.92;;
75542;SDS011;64129;53.508;10.476;2023-07-13T08:56:00;4.72;;;1.90;;
75542;SDS011;64129;53.508;10.476;2023-07-13T08:58:27;4.45;;;1.90;;
75542;SDS011;64129;53.508;10.476;2023-07-13T09:00:59;5.68;;;1.90;;
75542;SDS011;64129;53.508;10.476;2023-07-13T09:06:06;6.78;;;1.92;;
75542;SDS011;64129;53.508;10.476;2023-07-13T09:08:53;4.18;;;1.83;;
75542;SDS011;64129;53.508;10.476;2023-07-13T09:11:46;3.08;;;1.40;;
75542;SDS011;64129;53.508;10.476;2023-07-13T09:17:19;6.40;;;1.60;;
75542;SDS011;64129;53.508;10.476;2023-07-13T09:20:35;6.03;;;1.52;;
75542;SDS011;64129;53.508;10.476;2023-07-13T09:22:41;4.63;;;1.52;;
75542;SDS011;64129;53.508;10.476;2023-07-13T09:25:25;5.95;;;1.50;;
75542;SDS011;64129;53.508;10.476;2023-07-13T09:28:00;5.75;;;1.60;;
75542;SDS011;64129;53.508;10.476;2023-07-13T09:30:38;5.10;;;1.55;;
75542;SDS011;64129;53.508;10.476;2023-07-13T09:33:11;5.53;;;1.70;;
75542;SDS011;64129;53.508;10.476;2023-07-13T09:35:37;3.85;;;1.42;;
75542;SDS011;64129;53.508;10.476;2023-07-13T09:38:11;4.72;;;1.52;;
75542;SDS011;64129;53.508;10.476;2023-07-13T09:40:42;6.60;;;1.60;;
75542;SDS011;64129;53.508;10.476;2023-07-13T09:43:19;6.40;;;1.77;;
75542;SDS011;64129;53.508;10.476;2023-07-13T09:45:47;2.60;;;1.35;;
75542;SDS011;64129;53.508;10.476;2023-07-13T09:48:15;3.80;;;1.33;;
75542;SDS011;64129;53.508;10.476;2023-07-13T09:50:43;5.85;;;1.63;;
75542;SDS011;64129;53.508;10.476;2023-07-13T09:53:14;5.10;;;1.90;;
75542;SDS011;64129;53.508;10.476;2023-07-13T09:55:43;4.07;;;1.60;;
75542;SDS011;64129;53.508;10.476;2023-07-13T09:58:22;6.30;;;1.63;;
75542;SDS011;64129;53.508;10.476;2023-07-13T10:00:58;4.22;;;1.67;;
75542;SDS011;64129;53.508;10.476;2023-07-13T10:03:28;2.78;;;1.60;;
75542;SDS011;64129;53.508;10.476;2023-07-13T10:06:01;4.00;;;1.58;;
75542;SDS011;64129;53.508;10.476;2023-07-13T10:08:41;3.72;;;1.50;;
75542;SDS011;64129;53.508;10.476;2023-07-13T10:11:21;4.53;;;1.75;;
75542;SDS011;64129;53.508;10.476;2023-07-13T10:16:22;3.60;;;1.83;;
75542;SDS011;64129;53.508;10.476;2023-07-13T10:18:53;4.47;;;1.85;;
75542;SDS011;64129;53.508;10.476;2023-07-13T10:21:26;4.22;;;1.77;;
75542;SDS011;64129;53.508;10.476;2023-07-13T10:24:03;4.93;;;2.00;;
75542;SDS011;64129;53.508;10.476;2023-07-13T10:26:36;4.82;;;2.17;;
75542;SDS011;64129;53.508;10.476;2023-07-13T10:29:11;5.72;;;2.20;;
75542;SDS011;64129;53.508;10.476;2023-07-13T10:31:41;4.72;;;1.75;;
75542;SDS011;64129;53.508;10.476;2023-07-13T10:34:09;4.05;;;1.95;;
75542;SDS011;64129;53.508;10.476;2023-07-13T10:36:39;5.07;;;2.40;;
75542;SDS011;64129;53.508;10.476;2023-07-13T10:39:09;4.63;;;2.15;;
75542;SDS011;64129;53.508;10.476;2023-07-13T10:41:42;4.90;;;2.70;;
75542;SDS011;64129;53.508;10.476;2023-07-13T10:44:28;3.80;;;2.05;;
75542;SDS011;64129;53.508;10.476;2023-07-13T10:47:04;3.70;;;1.90;;
75542;SDS011;64129;53.508;10.476;2023-07-13T10:49:40;3.83;;;1.88;;
75542;SDS011;64129;53.508;10.476;2023-07-13T10:52:35;5.80;;;2.00;;
75542;SDS011;64129;53.508;10.476;2023-07-13T10:58:14;5.00;;;1.50;;
75542;SDS011;64129;53.508;10.476;2023-07-13T11:00:50;3.00;;;1.58;;
75542;SDS011;64129;53.508;10.476;2023-07-13T11:03:33;5.00;;;1.83;;
75542;SDS011;64129;53.508;10.476;2023-07-13T11:08:50;3.65;;;1.95;;
75542;SDS011;64129;53.508;10.476;2023-07-13T11:18:45;3.58;;;1.67;;
75542;SDS011;64129;53.508;10.476;2023-07-13T11:21:17;2.72;;;1.80;;
75542;SDS011;64129;53.508;10.476;2023-07-13T11:24:01;4.65;;;1.83;;
75542;SDS011;64129;53.508;10.476;2023-07-13T11:26:44;3.88;;;1.70;;
75542;SDS011;64129;53.508;10.476;2023-07-13T11:31:54;5.88;;;2.03;;
75542;SDS011;64129;53.508;10.476;2023-07-13T11:34:40;3.03;;;1.83;;
75542;SDS011;64129;53.508;10.476;2023-07-13T11:37:10;4.25;;;1.70;;
75542;SDS011;64129;53.508;10.476;2023-07-13T11:39:42;2.90;;;1.20;;
75542;SDS011;64129;53.508;10.476;2023-07-13T11:42:13;2.83;;;1.48;;
75542;SDS011;64129;53.508;10.476;2023-07-13T11:44:43;4.18;;;1.60;;
75542;SDS011;64129;53.508;10.476;2023-07-13T11:47:21;4.03;;;2.10;;
75542;SDS011;64129;53.508;10.476;2023-07-13T11:49:49;6.10;;;1.88;;
75542;SDS011;64129;53.508;10.476;2023-07-13T11:52:19;4.07;;;2.00;;
75542;SDS011;64129;53.508;10.476;2023-07-13T11:54:55;5.30;;;1.77;;
75542;SDS011;64129;53.508;10.476;2023-07-13T11:57:29;2.63;;;1.80;;
75542;SDS011;64129;53.508;10.476;2023-07-13T12:00:21;2.47;;;1.77;;
75542;SDS011;64129;53.508;10.476;2023-07-13T12:02:53;4.25;;;1.88;;
75542;SDS011;64129;53.508;10.476;2023-07-13T12:05:21;3.45;;;2.30;;
75542;SDS011;64129;53.508;10.476;2023-07-13T12:07:49;2.15;;;1.92;;
75542;SDS011;64129;53.508;10.476;2023-07-13T12:10:29;2.08;;;1.65;;
75542;SDS011;64129;53.508;10.476;2023-07-13T12:12:58;3.97;;;1.95;;
75542;SDS011;64129;53.508;10.476;2023-07-13T12:15:29;2.55;;;1.75;;
75542;SDS011;64129;53.508;10.476;2023-07-13T12:18:09;3.08;;;1.48;;
75542;SDS011;64129;53.508;10.476;2023-07-13T12:20:42;5.03;;;1.70;;
75542;SDS011;64129;53.508;10.476;2023-07-13T12:23:32;4.22;;;1.73;;
75542;SDS011;64129;53.508;10.476;2023-07-13T12:25:59;2.50;;;1.48;;
75542;SDS011;64129;53.508;10.476;2023-07-13T12:28:31;7.03;;;2.00;;
75542;SDS011;64129;53.508;10.476;2023-07-13T12:31:01;3.55;;;1.55;;
75542;SDS011;64129;53.508;10.476;2023-07-13T12:33:30;3.72;;;1.80;;
75542;SDS011;64129;53.508;10.476;2023-07-13T12:36:02;3.20;;;1.70;;
75542;SDS011;64129;53.508;10.476;2023-07-13T12:38:31;4.22;;;1.70;;
75542;SDS011;64129;53.508;10.476;2023-07-13T12:40:58;2.90;;;1.50;;
75542;SDS011;64129;53.508;10.476;2023-07-13T12:43:28;2.08;;;1.20;;
75542;SDS011;64129;53.508;10.476;2023-07-13T12:46:15;1.67;;;1.35;;
75542;SDS011;64129;53.508;10.476;2023-07-13T12:48:47;2.78;;;1.73;;
75542;SDS011;64129;53.508;10.476;2023-07-13T12:51:26;3.50;;;1.55;;
75542;SDS011;64129;53.508;10.476;2023-07-13T12:56:24;0.85;;;0.73;;
75542;SDS011;64129;53.508;10.476;2023-07-13T12:58:56;2.15;;;0.80;;
75542;SDS011;64129;53.508;10.476;2023-07-13T13:01:28;3.38;;;0.85;;
75542;SDS011;64129;53.508;10.476;2023-07-13T13:04:00;8.35;;;1.52;;
75542;SDS011;64129;53.508;10.476;2023-07-13T13:06:32;3.33;;;1.42;;
75542;SDS011;64129;53.508;10.476;2023-07-13T13:09:02;5.13;;;1.60;;
75542;SDS011;64129;53.508;10.476;2023-07-13T13:11:31;4.80;;;1.58;;
75542;SDS011;64129;53.508;10.476;2023-07-13T13:13:58;5.82;;;1.77;;
75542;SDS011;64129;53.508;10.476;2023-07-13T13:18:55;3.88;;;1.20;;
75542;SDS011;64129;53.508;10.476;2023-07-13T13:21:25;3.33;;;1.40;;
75542;SDS011;64129;53.508;10.476;2023-07-13T13:23:52;1.55;;;1.17;;
75542;SDS011;64129;53.508;10.476;2023-07-13T13:26:23;4.80;;;1.75;;
75542;SDS011;64129;53.508;10.476;2023-07-13T13:28:50;4.80;;;1.42;;
75542;SDS011;64129;53.508;10.476;2023-07-13T13:31:16;4.45;;;1.50;;
75542;SDS011;64129;53.508;10.476;2023-07-13T13:33:43;2.92;;;1.42;;
75542;SDS011;64129;53.508;10.476;2023-07-13T13:36:22;2.28;;;1.30;;
75542;SDS011;64129;53.508;10.476;2023-07-13T13:38:49;3.33;;;1.30;;
75542;SDS011;64129;53.508;10.476;2023-07-13T13:41:17;2.40;;;1.40;;
75542;SDS011;64129;53.508;10.476;2023-07-13T13:43:44;3.95;;;1.77;;
75542;SDS011;64129;53.508;10.476;2023-07-13T13:46:15;3.00;;;1.40;;
75542;SDS011;64129;53.508;10.476;2023-07-13T13:48:44;3.92;;;1.40;;
75542;SDS011;64129;53.508;10.476;2023-07-13T13:51:13;3.88;;;1.40;;
75542;SDS011;64129;53.508;10.476;2023-07-13T13:53:45;4.65;;;1.88;;
75542;SDS011;64129;53.508;10.476;2023-07-13T13:58:39;3.38;;;1.45;;
75542;SDS011;64129;53.508;10.476;2023-07-13T14:01:40;5.47;;;1.60;;
75542;SDS011;64129;53.508;10.476;2023-07-13T14:04:00;3.03;;;1.70;;
75542;SDS011;64129;53.508;10.476;2023-07-13T14:06:26;2.53;;;2.30;;
75542;SDS011;64129;53.508;10.476;2023-07-13T14:08:54;4.80;;;1.85;;
75542;SDS011;64129;53.508;10.476;2023-07-13T14:11:23;4.80;;;1.65;;
75542;SDS011;64129;53.508;10.476;2023-07-13T14:13:53;2.97;;;1.73;;
75542;SDS011;64129;53.508;10.476;2023-07-13T14:16:26;3.85;;;1.77;;
75542;SDS011;64129;53.508;10.476;2023-07-13T14:18:55;4.32;;;1.70;;
75542;SDS011;64129;53.508;10.476;2023-07-13T14:21:25;2.85;;;1.80;;
75542;SDS011;64129;53.508;10.476;2023-07-13T14:26:22;3.25;;;1.95;;
75542;SDS011;64129;53.508;10.476;2023-07-13T14:28:53;2.75;;;1.70;;
75542;SDS011;64129;53.508;10.476;2023-07-13T14:31:21;6.57;;;2.00;;
75542;SDS011;64129;53.508;10.476;2023-07-13T14:33:52;3.22;;;1.77;;
75542;SDS011;64129;53.508;10.476;2023-07-13T14:36:32;2.03;;;1.45;;
75542;SDS011;64129;53.508;10.476;2023-07-13T14:39:10;2.28;;;1.75;;
75542;SDS011;64129;53.508;10.476;2023-07-13T14:41:40;1.75;;;1.55;;
75542;SDS011;64129;53.508;10.476;2023-07-13T14:44:10;3.55;;;1.70;;
75542;SDS011;64129;53.508;10.476;2023-07-13T14:46:38;3.65;;;1.60;;
75542;SDS011;64129;53.508;10.476;2023-07-13T14:49:51;1.52;;;1.42;;
75542;SDS011;64129;53.508;10.476;2023-07-13T14:51:56;3.20;;;1.73;;
75542;SDS011;64129;53.508;10.476;2023-07-13T14:54:25;3.15;;;1.70;;
75542;SDS011;64129;53.508;10.476;2023-07-13T14:56:52;3.22;;;1.65;;
75542;SDS011;64129;53.508;10.476;2023-07-13T14:59:19;3.20;;;1.50;;
75542;SDS011;64129;53.508;10.476;2023-07-13T15:01:46;3.35;;;2.00;;
75542;SDS011;64129;53.508;10.476;2023-07-13T15:04:14;3.28;;;2.10;;
75542;SDS011;64129;53.508;10.476;2023-07-13T15:06:58;3.33;;;2.13;;
75542;SDS011;64129;53.508;10.476;2023-07-13T15:09:28;6.78;;;2.33;;
75542;SDS011;64129;53.508;10.476;2023-07-13T15:11:58;2.45;;;1.92;;
75542;SDS011;64129;53.508;10.476;2023-07-13T15:14:25;2.10;;;1.92;;
75542;SDS011;64129;53.508;10.476;2023-07-13T15:16:53;4.07;;;1.83;;
75542;SDS011;64129;53.508;10.476;2023-07-13T15:19:21;3.80;;;2.05;;
75542;SDS011;64129;53.508;10.476;2023-07-13T15:24:18;2.78;;;1.90;;
75542;SDS011;64129;53.508;10.476;2023-07-13T15:26:44;2.47;;;1.90;;
75542;SDS011;64129;53.508;10.476;2023-07-13T15:29:12;3.63;;;2.40;;
75542;SDS011;64129;53.508;10.476;2023-07-13T15:31:40;3.80;;;2.00;;
75542;SDS011;64129;53.508;10.476;2023-07-13T15:34:23;4.07;;;2.22;;